Terminal Aerodrome Forecast
Issued by NWS Bismarck, ND

Home | Current Version | Previous Version | Graphics & Text | Print | Product List | Glossary On
Versions: 1 2 3 4 5 6 7 8 9 10 11 12 13 14 15 16 17
872
FTUS43 KBIS 202331
TAFISN
TAF
KISN 202331Z 2100/2124 05017G26KT P6SM VCTS FEW100CB FEW250
     FM210200 08012KT P6SM FEW100 FEW250
     FM211300 02005KT P6SM BKN090 BKN200
     FM211500 32011KT P6SM FEW080 SCT200=

USA.gov is the U.S. government's official web portal to all federal, state and local government web resources and services.